Hit Tracker is now ESPN Home Run Tracker! Hit Tracker founder Greg Rybarczyk is now collaborating with the ESPN Stats & Information Group to continue tracking all MLB home runs, and helping baseball fans know "How Far It Really Went!™" Please credit any information on this site to ESPN Stats & Information Group. For more information and analysis on home runs, please contact founder Greg Rybarczyk. E-Mail ESPN Home Run Tracker
Main Page | Ballparks | Park Overlays | Glossary | Highlight Homers | Feedback | Bio | 3 Types of HR's | AAA Home Run Derby Last Updated: September 3, 2015, 10:53 pm PST
Welcome to the ESPN Home Run Tracker! Check out the ESPN MLB Scoreboard throughout the 2015 season! Contact us at grybar@hittrackeronline.com.
Season:
Ballpark detail for Great American Ball Park
Ballpark # of Home Runs HR per game Avg.
True
Distance
Avg.
Speed
Off
Bat
Avg.
Std.
Dist.
Great American Ball Park 150 2.34 393.5 102.1 390.7

Scatter Plot of Home Runs Great American Ball Park
 Overlay Ballpark:
Without range rings   With range rings

2015 Season Home Runs for Great American Ball Park
Click headers to sort
Date Video Path Hitter Hitter
Team
Pitcher Pitcher
Team
INN ^ Ballpark Type/
Luck
True
Dist.
Speed
Off
Bat
Elev.
Angle
Horiz.
Angle
Apex Impact Due To: Std.
Dist.
#
Parks
Wind Temp. Alt.
05/15/15 Video View Belt, Brandon SF Marquis, Jason CIN 1 Great Americ... ND 379 106.7 37.5 63.6 147 -7 4 3 379 30
05/15/15 Video View Cozart, Zack CIN Bumgarner, Madison SF 1 Great Americ... JE 355 94.8 33.7 113.2 97 0 2 2 352 9
05/12/15 Video View Frazier, Todd CIN Foltynewicz, Mike ATL 1 Great Americ... PL 372 97.6 33.2 112.6 102 5 -1 2 367 19
04/28/15 Video View Votto, Joey CIN Lohse, Kyle MIL 1 Great Americ... JE 389 103.0 22.9 80.0 65 0 0 0 389 8
04/29/15 Video View Frazier, Todd CIN Garza, Matt MIL 1 Great Americ... JE 382 99.8 35.4 101.9 131 0 -1 3 381 17
04/08/15 Video View Frazier, Todd CIN Cole, Gerrit PIT 1 Great Americ... ND 409 105.6 30.6 112.1 104 0 -1 2 408 30
04/10/15 Video View Votto, Joey CIN Lackey, John STL 1 Great Americ... JE 367 99.1 25.8 108.5 68 -1 0 0 367 11
04/11/15 Video View Frazier, Todd CIN Wacha, Michael STL 1 Great Americ... JE 360 105.9 22.9 123.2 53 0 -1 0 360 21
05/25/15 Video View Frazier, Todd CIN Butler, Eddie COL 1 Great Americ... JE 398 100.2 31.5 93.5 119 -8 0 2 403 18
05/27/15 Video View Arenado, Nolan COL Leake, Mike CIN 1 Great Americ... PL 400 103.1 32.8 106.6 119 -4 2 2 400 30
05/27/15 Video View Frazier, Todd CIN Kendrick, Kyle COL 1 Great Americ... JE 394 104.3 22.8 101.2 65 0 0 0 393 15
05/29/15 Video View Votto, Joey CIN Strasburg, Stephen WSH 1 Great Americ... JE 398 103.5 23.8 100.8 69 0 1 0 397 18
06/09/15 Video View Cozart, Zack CIN Harang, Aaron PHI 1 Great Americ... JE 362 99.9 27.5 122.0 68 2 1 1 359 17
06/10/15 Video View De Jesus, Ivan CIN Williams, Jerome PHI 1 Great Americ... JE/L 370 94.2 34.3 107.6 99 12 3 1 354 2
06/21/15 Video View Frazier, Todd CIN Phelps, David MIA 1 Great Americ... JE 380 96.4 29.9 76.5 86 5 1 1 373 1
06/30/15 Video View Hunter, Torii MIN DeSclafani, Anthony CIN 1 Great Americ... PL 390 100.2 35.2 102.1 128 5 -1 3 383 20
07/03/15 Video View Parra, Gerardo MIL Lorenzen, Michael CIN 1 Great Americ... PL 403 99.8 29.6 85.7 103 -1 0 1 403 15
07/18/15 Video View Brantley, Michael CLE DeSclafani, Anthony CIN 1 Great Americ... JE 380 102.4 23.9 73.7 63 1 1 0 378 6
07/20/15 Video View Frazier, Todd CIN Richard, Clayton CHC 1 Great Americ... JE 417 112.8 17.9 86.8 52 -3 0 0 421 21
07/30/15 Video View Byrd, Marlon CIN Burnett, A.J. PIT 1 Great Americ... PL 419 101.9 29.0 87.6 102 1 2 1 415 23
08/18/15 Video View Suarez, Eugenio CIN Volquez, Edinson KC 1 Great Americ... PL 357 97.4 30.2 121.2 78 0 2 1 355 24
08/19/15 Video View Votto, Joey CIN Guthrie, Jeremy KC 1 Great Americ... PL 417 102.1 26.9 87.6 89 2 0 1 414 22
08/19/15 Video View Phillips, Brandon CIN Guthrie, Jeremy KC 1 Great Americ... JE 352 99.9 26.6 124.6 63 1 0 1 351 14
08/21/15 Video View Pollock, A.J. ARI Holmberg, David CIN 1 Great Americ... JE 359 97.4 28.4 114.3 75 -1 1 1 359 11
08/22/15 Video View Inciarte, Ender ARI DeSclafani, Anthony CIN 1 Great Americ... PL 386 104.5 23.4 72.7 65 0 1 0 385 21
08/22/15 Video View Goldschmidt, Paul ARI DeSclafani, Anthony CIN 1 Great Americ... PL 371 98.8 33.9 65.9 107 -2 1 2 369 28
08/24/15 Video View Martinez, J.D. DET Sampson, Keyvius CIN 1 Great Americ... JE 409 105.2 23.1 98.4 69 1 0 1 408 20
08/24/15 Video View Castellanos, Nick DET Sampson, Keyvius CIN 1 Great Americ... JE 369 96.2 35.2 107.6 113 6 1 2 360 3
05/16/15 Video View Belt, Brandon SF Leake, Mike CIN 2 Great Americ... PL 420 104.4 25.3 83.9 89 -1 0 1 420 24
05/13/15 Video View Byrd, Marlon CIN Stults, Eric ATL 2 Great Americ... JE 353 94.9 31.9 114.7 87 1 0 1 351 8
04/26/15 Video View Montero, Miguel CHC DeSclafani, Anthony CIN 2 Great Americ... PL 387 100.4 28.5 106.4 88 -1 -2 1 388 30
04/27/15 Video View Bruce, Jay CIN Nelson, Jimmy MIL 2 Great Americ... PL 367 99.2 37.0 75.9 136 0 -3 3 367 17
04/29/15 Video View Lind, Adam MIL Lorenzen, Michael CIN 2 Great Americ... JE 415 106.3 21.4 86.5 67 0 0 0 414 18
04/29/15 Video View Davis, Khris MIL Lorenzen, Michael CIN 2 Great Americ... PL 423 105.4 23.5 92.6 79 0 0 0 423 25
04/10/15 Video View Grichuk, Randal STL Marquis, Jason CIN 2 Great Americ... PL 418 108.2 22.9 101.1 72 0 0 1 418 30
04/12/15 Video View Bruce, Jay CIN Martinez, Carlos STL 2 Great Americ... PL 414 102.2 28.6 93.4 105 -3 0 1 416 24
05/27/15 Video View Blackmon, Charlie COL Leake, Mike CIN 2 Great Americ... PL 379 99.1 33.6 77.0 121 -9 2 2 383 20
06/05/15 Video View Venable, Will SD Moscot, Jon CIN 2 Great Americ... PL 418 108.2 22.1 80.9 66 0 0 0 417 27
06/07/15 Video View Bruce, Jay CIN Despaigne, Odrisamer SD 2 Great Americ... ND 440 107.7 29.9 71.0 103 13 3 2 423 30
06/21/15 Video View Bour, Justin MIA Lorenzen, Michael CIN 2 Great Americ... ND 421 109.5 27.7 57.4 80 11 2 1 408 30
07/03/15 Video View Ramirez, Aramis MIL Lorenzen, Michael CIN 2 Great Americ... PL 416 105.9 23.7 98.3 87 -2 0 1 417 30
07/04/15 Video View Byrd, Marlon CIN Nelson, Jimmy MIL 2 Great Americ... PL 420 109.8 22.6 103.0 64 2 1 1 418 30
07/17/15 Video View Byrd, Marlon CIN Bauer, Trevor CLE 2 Great Americ... JE 360 96.1 30.2 68.1 84 -3 2 1 360 12
07/19/15 Video View Suarez, Eugenio CIN Carrasco, Carlos CLE 2 Great Americ... PL/L 353 96.6 40.5 113.6 132 19 5 3 328 0
07/30/15 Video View Alvarez, Pedro PIT Holmberg, David CIN 2 Great Americ... PL 419 101.9 31.8 83.3 115 6 2 2 409 26
07/31/15 Video View De Jesus, Ivan CIN Locke, Jeff PIT 2 Great Americ... PL 385 99.4 27.3 102.8 83 -2 1 1 386 23
05/15/15 Video View Posey, Buster SF Marquis, Jason CIN 3 Great Americ... ND 417 108.7 30.7 119.1 102 -1 2 2 415 30
05/16/15 Video View Blanco, Gregor SF Leake, Mike CIN 3 Great Americ... JE 410 104.3 23.1 84.4 72 0 0 0 409 15
05/17/15 Video View Pence, Hunter SF Desclafani, Anthony CIN 3 Great Americ... JE 366 109.6 21.1 122.1 49 1 1 1 365 23
05/13/15 Video View Frazier, Todd CIN Stults, Eric ATL 3 Great Americ... PL 428 104.3 26.6 90.8 96 0 0 1 427 26
04/10/15 Video View Votto, Joey CIN Lackey, John STL 3 Great Americ... JE 381 102.7 23.6 104.8 65 0 0 0 382 14
05/30/15 Video View Votto, Joey CIN Gonzalez, Gio WSH 3 Great Americ... JE 400 99.9 27.8 96.0 92 -3 2 1 400 15
06/05/15 Video View Middlebrooks, Will SD Moscot, Jon CIN 3 Great Americ... JE 412 104.9 22.4 85.8 69 0 0 0 411 13
06/06/15 Video View Cozart, Zack CIN Cashner, Andrew SD 3 Great Americ... JE 381 98.4 29.0 105.3 90 0 1 1 380 12
06/09/15 Video View Votto, Joey CIN Harang, Aaron PHI 3 Great Americ... JE 412 105.9 21.4 87.2 64 -2 0 0 413 12
06/09/15 Video View Frazier, Todd CIN Harang, Aaron PHI 3 Great Americ... ND/L 409 107.6 31.4 124.7 99 2 2 2 403 30
06/30/15 Video View Suarez, Eugenio CIN Hughes, Phil MIN 3 Great Americ... JE 418 104.6 23.3 91.9 76 0 0 0 417 20
07/18/15 Video View Moss, Brandon CLE DeSclafani, Anthony CIN 3 Great Americ... JE 359 101.9 24.2 63.4 57 0 1 0 358 11
08/04/15 Video View Carpenter, Matt STL DeSclafani, Anthony CIN 3 Great Americ... PL 423 101.4 31.1 84.2 106 12 2 2 408 20
08/25/15 Video View Turner, Justin LAD Lamb, John CIN 3 Great Americ... JE/L 350 93.7 35.7 115.5 101 8 0 2 341 2
05/11/15 Video View Simmons, Andrelton ATL Leake, Mike CIN 4 Great Americ... JE 404 101.5 26.0 97.2 83 0 0 1 403 15
04/26/15 Video View Frazier, Todd CIN Arrieta, Jake CHC 4 Great Americ... PL 365 101.9 26.8 122.5 68 0 -1 1 365 29
04/28/15 Video View Phillips, Brandon CIN Lohse, Kyle MIL 4 Great Americ... JE 413 102.1 26.3 92.0 89 0 -1 1 413 18
04/28/15 Video View Byrd, Marlon CIN Lohse, Kyle MIL 4 Great Americ... PL 386 101.1 26.6 73.5 77 0 -1 1 386 25
04/06/15 Video View Bruce, Jay CIN Liriano, Francisco PIT 4 Great Americ... PL 409 107.4 24.0 74.4 73 0 0 1 409 29
04/11/15 Video View Adams, Matt STL Cueto, Johnny CIN 4 Great Americ... PL 350 96.2 31.1 58.2 81 0 -2 1 350 25
04/24/15 Video View Rizzo, Anthony CHC Leake, Mike CIN 4 Great Americ... PL 395 103.7 23.8 77.4 70 0 0 1 395 21
05/25/15 Video View Arenado, Nolan COL Marquis, Jason CIN 4 Great Americ... PL 388 101.3 28.3 108.3 88 -3 0 1 390 30
05/31/15 Video View Frazier, Todd CIN Roark, Tanner WSH 4 Great Americ... ND 410 106.6 31.7 122.0 99 8 -1 2 401 30
06/06/15 Video View Kemp, Matt SD Lorenzen, Michael CIN 4 Great Americ... JE/L 380 96.7 33.0 81.6 111 -1 0 1 378 4
06/17/15 Video View Frazier, Todd CIN Price, David DET 4 Great Americ... PL 406 100.7 27.0 84.2 85 2 0 1 403 14
06/19/15 Video View Byrd, Marlon CIN Haren, Dan MIA 4 Great Americ... JE 400 100.6 29.6 83.2 109 -7 1 1 404 15
06/20/15 Video View Dietrich, Derek MIA DeSclafani, Anthony CIN 4 Great Americ... ND 435 106.6 31.5 76.1 118 8 2 2 423 30
06/29/15 Video View Dozier, Brian MIN Leake, Mike CIN 4 Great Americ... JE 372 97.1 29.4 109.0 83 3 0 1 368 7
07/04/15 Video View Lind, Adam MIL Smith, Josh CIN 4 Great Americ... PL 388 99.1 28.2 75.5 81 3 1 1 383 19
07/17/15 Video View Votto, Joey CIN Bauer, Trevor CLE 4 Great Americ... PL 423 103.3 26.9 90.6 95 0 0 1 422 26
07/20/15 Video View Byrd, Marlon CIN Richard, Clayton CHC 4 Great Americ... PL 404 104.8 25.8 72.5 77 0 1 0 402 30
08/01/15 Video View Kang, Jung Ho PIT Iglesias, Raisel CIN 4 Great Americ... ND 412 105.6 28.4 110.7 90 1 1 1 408 30
08/02/15 Video View Walker, Neil PIT Sampson, Keyvius CIN 4 Great Americ... JE/L 390 96.5 31.7 80.9 98 9 2 1 378 0
08/21/15 Video View Tomas, Yasmany ARI Holmberg, David CIN 4 Great Americ... PL 416 104.1 23.9 86.2 79 0 0 0 416 20
08/23/15 Video View Castillo, Welington ARI Iglesias, Raisel CIN 4 Great Americ... JE 387 105.1 23.2 107.2 59 1 1 0 386 17
08/26/15 Video View Ellis, A.J. LAD Holmberg, David CIN 4 Great Americ... PL 418 104.9 23.9 95.1 83 -1 0 0 418 23
08/26/15 Video View Puig, Yasiel LAD Holmberg, David CIN 4 Great Americ... PL 425 110.9 18.8 87.4 61 3 0 0 422 22
08/26/15 Video View Van Slyke, Scott LAD Holmberg, David CIN 4 Great Americ... JE 405 102.4 24.2 95.4 78 0 0 0 404 11
05/15/15 Video View Hamilton, Billy CIN Bumgarner, Madison SF 5 Great Americ... JE 355 97.0 29.0 117.9 74 0 0 1 354 12
05/16/15 Video View Crawford, Brandon SF Leake, Mike CIN 5 Great Americ... PL 408 102.1 29.4 79.7 104 -2 0 1 408 28
05/17/15 Video View Phillips, Brandon CIN Petit, Yusmeiro SF 5 Great Americ... JE 381 97.3 29.5 103.0 89 1 1 1 378 10
04/28/15 Video View Ramirez, Aramis MIL Cueto, Johnny CIN 5 Great Americ... ND 444 114.4 24.6 109.5 82 0 -1 1 444 30
04/29/15 Video View Braun, Ryan MIL Lorenzen, Michael CIN 5 Great Americ... ND 431 108.3 24.3 80.3 82 0 0 1 431 30
04/29/15 Video View Barnhart, Tucker CIN Garza, Matt MIL 5 Great Americ... PL 399 100.9 29.8 77.0 99 0 0 1 398 28
04/12/15 Video View Hamilton, Billy CIN Martinez, Carlos STL 5 Great Americ... PL 398 99.8 28.4 82.8 95 -2 0 1 399 15
05/26/15 Video View Hundley, Nick COL Lorenzen, Michael CIN 5 Great Americ... ND 395 103.6 31.4 115.0 102 -2 0 2 395 30
05/31/15 Video View Phillips, Brandon CIN Roark, Tanner WSH 5 Great Americ... PL 387 99.9 28.9 108.9 83 5 0 1 382 27
06/09/15 Video View Votto, Joey CIN Harang, Aaron PHI 5 Great Americ... JE 395 98.4 32.7 102.0 108 8 1 2 384 7
07/04/15 Video View De Jesus, Ivan CIN Nelson, Jimmy MIL 5 Great Americ... JE 353 94.9 30.6 58.6 72 9 1 1 342 5
07/22/15 Video View Votto, Joey CIN Hendricks, Kyle CHC 5 Great Americ... JE 379 100.0 25.7 74.3 67 1 0 0 377 10
07/30/15 Video View Phillips, Brandon CIN Guerra, Deolis PIT 5 Great Americ... PL 405 104.8 25.3 106.3 74 3 1 1 401 30
07/31/15 Video View McCutchen, Andrew PIT Lorenzen, Michael CIN 5 Great Americ... PL 374 98.8 30.0 67.4 87 -2 2 1 373 25
08/20/15 Video View Owings, Chris ARI Lamb, John CIN 5 Great Americ... ND 409 104.4 28.4 108.7 90 2 0 1 406 30
05/16/15 Video View Bruce, Jay CIN Vogelsong, Ryan SF 6 Great Americ... PL 368 98.8 28.8 68.0 83 -4 0 1 371 23
04/09/15 Video View Alvarez, Pedro PIT DeSclafani, Anthony CIN 6 Great Americ... PL 368 97.2 31.1 110.6 92 -1 0 1 368 19
04/09/15 Video View Votto, Joey CIN Burnett, A.J. PIT 6 Great Americ... JE 413 101.8 29.0 86.9 106 -2 1 1 414 23
05/25/15 Video View Byrd, Marlon CIN Butler, Eddie COL 6 Great Americ... PL 368 101.3 25.7 65.5 67 -1 0 1 368 22
05/30/15 Video View Taylor, Michael WSH Iglesias, Raisel CIN 6 Great Americ... ND 411 108.3 24.4 108.4 74 -2 0 1 411 30
06/07/15 Video View Bruce, Jay CIN Despaigne, Odrisamer SD 6 Great Americ... PL 345 94.0 37.4 63.2 110 4 4 2 335 1
06/08/15 Video View De Jesus, Ivan CIN Hamels, Cole PHI 6 Great Americ... PL 385 103.0 29.7 119.0 89 -3 0 1 386 30
06/17/15 Video View Cabrera, Miguel DET Cueto, Johnny CIN 6 Great Americ... ND 403 104.0 30.0 67.2 95 2 1 1 399 30
06/21/15 Video View Bruce, Jay CIN Phelps, David MIA 6 Great Americ... PL 382 96.6 36.0 67.6 110 23 3 2 355 2
07/20/15 Video View Bruce, Jay CIN Grimm, Justin CHC 6 Great Americ... ND 440 107.3 32.4 75.6 126 13 4 3 423 30
07/21/15 Video View Coghlan, Chris CHC Iglesias, Raisel CIN 6 Great Americ... JE 375 96.9 29.1 108.4 80 7 1 1 367 2
07/30/15 Video View Phillips, Brandon CIN Guerra, Deolis PIT 6 Great Americ... PL 393 99.7 29.3 103.9 92 1 1 1 390 26
07/31/15 Video View Byrd, Marlon CIN Hughes, Jared PIT 6 Great Americ... PL 426 109.9 19.7 87.7 63 2 -1 0 425 24
08/24/15 Video View Suarez, Eugenio CIN Farmer, Buck DET 6 Great Americ... PL 398 102.1 29.6 109.9 93 3 0 1 393 30
08/24/15 Video View Phillips, Brandon CIN Farmer, Buck DET 6 Great Americ... ND 392 104.6 29.8 122.2 87 1 0 1 390 30
08/25/15 Video View Rollins, Jimmy LAD Mattheus, Ryan CIN 6 Great Americ... ND 407 103.0 31.6 72.6 108 4 0 2 401 30
05/17/15 Video View Bruce, Jay CIN Affeldt, Jeremy SF 7 Great Americ... PL 420 106.3 22.5 85.0 73 1 1 0 419 23
04/28/15 Video View Braun, Ryan MIL Cueto, Johnny CIN 7 Great Americ... PL 405 108.6 23.0 73.1 66 0 -1 0 405 29
04/24/15 Video View Coghlan, Chris CHC Leake, Mike CIN 7 Great Americ... PL 357 96.4 32.8 114.3 96 -2 -1 1 359 21
05/29/15 Video View Frazier, Todd CIN Treinen, Blake WSH 7 Great Americ... ND 420 106.9 29.2 108.2 103 -3 1 2 420 30
06/05/15 Video View Norris, Derek SD Villarreal, Pedro CIN 7 Great Americ... PL 387 102.5 25.7 108.0 72 1 0 1 386 27
06/06/15 Video View Alonso, Yonder SD Cingrani, Tony CIN 7 Great Americ... JE/L 389 98.6 26.8 83.0 82 0 1 1 388 5
06/09/15 Video View Votto, Joey CIN McGowan, Dustin PHI 7 Great Americ... PL 380 99.8 36.0 70.3 124 6 2 3 370 24
06/20/15 Video View Dietrich, Derek MIA Parra, Manny CIN 7 Great Americ... JE 361 107.2 22.0 57.1 50 1 1 1 360 16
06/30/15 Video View Byrd, Marlon CIN Hughes, Phil MIN 7 Great Americ... PL 395 98.7 31.4 102.7 99 8 -1 1 386 20
07/03/15 Video View Gomez, Carlos MIL Contreras, Carlos CIN 7 Great Americ... PL 362 97.5 32.8 110.2 105 -9 0 2 369 22
07/05/15 Video View Parra, Gerardo MIL Contreras, Carlos CIN 7 Great Americ... ND 386 102.3 34.1 61.5 110 2 1 2 381 30
07/05/15 Video View Lind, Adam MIL Contreras, Carlos CIN 7 Great Americ... PL 380 99.4 30.7 68.1 92 0 1 1 378 29
07/18/15 Video View Gomes, Yan CLE Adcock, Nate CIN 7 Great Americ... ND 433 105.6 32.0 101.4 122 7 4 2 421 30
08/22/15 Video View Goldschmidt, Paul ARI Villarreal, Pedro CIN 7 Great Americ... PL 403 101.9 25.8 81.3 81 0 0 0 402 20
05/14/15 Video View Byrd, Marlon CIN Romo, Sergio SF 8 Great Americ... PL 390 107.1 22.3 107.1 60 0 0 0 390 25
05/17/15 Video View Belt, Brandon SF Diaz, Jumbo CIN 8 Great Americ... JE 398 102.2 24.9 100.0 76 -1 0 0 398 20
04/29/15 Video View Braun, Ryan MIL Diaz, Jumbo CIN 8 Great Americ... PL 421 103.5 27.9 96.3 99 0 -1 1 420 29
04/06/15 Video View McCutchen, Andrew PIT Gregg, Kevin CIN 8 Great Americ... JE 398 99.9 27.3 83.4 88 0 -1 1 398 12
04/06/15 Video View Frazier, Todd CIN Watson, Tony PIT 8 Great Americ... ND 396 104.4 30.7 117.7 96 0 -1 1 395 30
04/12/15 Video View Peralta, Jhonny STL Diaz, Jumbo CIN 8 Great Americ... PL 361 97.3 34.6 113.8 108 -2 0 2 361 24
05/27/15 Video View Barnhart, Tucker CIN Kendrick, Kyle COL 8 Great Americ... PL 374 100.4 35.8 75.7 136 -11 3 2 379 23
06/08/15 Video View Cozart, Zack CIN De Fratus, Justin PHI 8 Great Americ... PL 370 97.4 34.0 108.8 109 0 0 2 368 18
06/17/15 Video View Collins, Tyler DET Mattheus, Ryan CIN 8 Great Americ... JE 369 99.2 26.1 70.1 66 3 0 1 366 8
07/18/15 Video View Bruce, Jay CIN Allen, Cody CLE 8 Great Americ... PL 396 98.9 31.2 80.8 106 1 2 1 392 12
08/05/15 Video View Carpenter, Matt STL Hoover, J.J. CIN 8 Great Americ... PL 382 102.9 26.3 66.6 73 -2 0 1 382 29
08/21/15 Video View Votto, Joey CIN Hessler, Keith ARI 8 Great Americ... PL 373 100.0 28.0 113.2 78 -2 1 1 373 28
08/23/15 Video View Peralta, David ARI Diaz, Jumbo CIN 8 Great Americ... JE 421 105.7 22.6 91.2 71 -1 0 0 421 23
08/24/15 Video View Votto, Joey CIN Knudson, Guido DET 8 Great Americ... ND 424 105.6 29.6 72.0 98 8 0 1 415 30
04/29/15 Video View Bruce, Jay CIN Jeffress, Jeremy MIL 9 Great Americ... JE 417 102.1 26.8 91.0 90 1 -1 1 414 21
07/21/15 Video View Schwarber, Kyle CHC Hoover, J.J. CIN 9 Great Americ... ND 397 106.4 38.8 66.3 151 24 3 4 368 29
08/18/15 Video View Zobrist, Ben KC Chapman, Aroldis CIN 9 Great Americ... PL 384 98.3 30.4 104.2 96 -1 1 1 382 23
04/12/15 Video View Carpenter, Matt STL Gregg, Kevin CIN 11 Great Americ... JE 411 102.7 24.9 86.2 80 0 0 1 410 13
06/17/15 Video View Frazier, Todd CIN Soria, Joakim DET 13 Great Americ... JE 406 101.4 27.0 97.6 88 -1 0 1 405 20
07/21/15 Video View Schwarber, Kyle CHC Adcock, Nate CIN 13 Great Americ... PL 385 104.7 25.2 65.1 65 1 0 0 382 29
08/05/15 Video View Grichuk, Randal STL Axelrod, Dylan CIN 13 Great Americ... JE 381 100.9 25.6 105.4 74 -1 1 1 382 19


About HitTracker | Contact Us
© 2006-2015 HitTrackerOnline